createdAt,value
2022-09-12T00:02:04.202Z,94238.06
2022-09-12T00:04:31.809Z,94239.97
2022-09-12T00:07:00.702Z,94239.13
2022-09-12T00:09:28.212Z,94241.84
2022-09-12T00:11:55.745Z,94237.25
2022-09-12T00:14:23.264Z,94240.22
2022-09-12T00:16:50.825Z,94238.34
2022-09-12T00:19:18.689Z,94242.94
2022-09-12T00:21:46.317Z,94239.44
2022-09-12T00:24:15.192Z,94232.06
2022-09-12T00:26:42.711Z,94231.53
2022-09-12T00:29:11.119Z,94228.03
2022-09-12T00:31:38.680Z,94220.66
2022-09-12T00:34:06.249Z,94225.31
2022-09-12T00:36:34.153Z,94220.66
2022-09-12T00:39:01.710Z,94218.25
2022-09-12T00:41:31.613Z,94213.59
2022-09-12T00:43:59.857Z,94206.53
2022-09-12T00:46:30.430Z,94214.44
2022-09-12T00:48:59.875Z,94203.03
2022-09-12T00:51:27.448Z,94199.47
2022-09-12T00:53:55.157Z,94205.75
2022-09-12T00:56:22.671Z,94203.03
2022-09-12T00:58:53.449Z,94203.03
2022-09-12T01:01:21.119Z,94196.75
2022-09-12T01:03:48.685Z,94199.47
2022-09-12T01:06:17.520Z,94189.69
2022-09-12T01:08:45.164Z,94193.22
2022-09-12T01:11:12.829Z,94189.69
2022-09-12T01:13:40.492Z,94179.94
2022-09-12T01:16:10.505Z,94176.13
2022-09-12T01:18:52.338Z,94172.56
2022-09-12T01:21:21.493Z,94179.94
2022-09-12T01:24:27.195Z,94175.28
2022-09-12T01:27:12.590Z,94179.09
2022-09-12T01:29:48.992Z,94171.25
2022-09-12T01:32:22.181Z,94163.88
2022-09-12T01:34:50.930Z,94163.88
2022-09-12T01:37:21.943Z,94164.72
2022-09-12T01:39:52.116Z,94159.53
2022-09-12T01:42:21.808Z,94163.09
2022-09-12T01:44:51.392Z,94158.75
2022-09-12T01:47:22.383Z,94158.75
2022-09-12T01:49:53.033Z,94161.47
2022-09-12T01:52:22.421Z,94151.69
2022-09-12T01:54:51.685Z,94159.53
2022-09-12T01:57:21.619Z,94153.31
2022-09-12T01:59:50.147Z,94151.69
2022-09-12T02:02:19.279Z,94148.97
2022-09-12T02:04:52.129Z,94144.59
2022-09-12T02:07:20.991Z,94141.88
2022-09-12T02:09:50.202Z,94140.81
2022-09-12T02:12:18.704Z,94142.97
2022-09-12T02:14:47.624Z,94138.34
2022-09-12T02:17:15.847Z,94139.16
2022-09-12T02:19:45.604Z,94143.78
2022-09-12T02:22:15.900Z,94137.53
2022-09-12T02:24:44.680Z,94133.72
2022-09-12T02:27:13.628Z,94133.16
2022-09-12T02:29:41.518Z,94123.38
2022-09-12T02:32:11.991Z,94125.00
2022-09-12T02:34:43.164Z,94124.22
2022-09-12T02:37:17.178Z,94126.09
2022-09-12T02:39:45.619Z,94124.22
2022-09-12T02:42:13.316Z,94123.38
2022-09-12T02:44:40.914Z,94117.94
2022-09-12T02:47:09.945Z,94114.44
